createdAt,value
2024-02-24T00:01:03.899Z,8.60
2024-02-24T00:03:31.314Z,8.60
2024-02-24T00:05:59.142Z,8.60
2024-02-24T00:08:26.790Z,8.70
2024-02-24T00:10:54.254Z,8.70
2024-02-24T00:13:21.644Z,8.60
2024-02-24T00:15:49.134Z,8.60
2024-02-24T00:18:16.684Z,8.50
2024-02-24T00:20:44.639Z,8.50
2024-02-24T00:23:12.200Z,8.50
2024-02-24T00:25:39.793Z,8.40
2024-02-24T00:28:10.454Z,8.40
2024-02-24T00:30:37.839Z,8.50
2024-02-24T00:33:05.728Z,8.50
2024-02-24T00:35:33.563Z,8.50
2024-02-24T00:38:00.966Z,8.50
2024-02-24T00:40:28.609Z,8.60
2024-02-24T00:42:56.164Z,8.60
2024-02-24T00:45:23.600Z,8.70
2024-02-24T00:47:51.059Z,8.70
2024-02-24T00:50:18.771Z,8.80
2024-02-24T00:52:46.753Z,8.80
2024-02-24T00:55:14.295Z,8.70
2024-02-24T00:57:41.651Z,8.70
2024-02-24T01:00:09.721Z,8.60
2024-02-24T01:02:37.139Z,8.50
2024-02-24T01:05:04.932Z,8.50
2024-02-24T01:07:32.524Z,8.50
2024-02-24T01:10:00.427Z,8.40
2024-02-24T01:12:27.889Z,8.40
2024-02-24T01:14:58.401Z,8.40
2024-02-24T01:17:26.346Z,8.40
2024-02-24T01:19:53.792Z,8.40
2024-02-24T01:22:21.317Z,8.30
2024-02-24T01:24:50.214Z,8.30
2024-02-24T01:27:17.598Z,8.30
2024-02-24T01:29:45.084Z,8.30
2024-02-24T01:32:12.987Z,8.30
2024-02-24T01:34:40.543Z,8.30
2024-02-24T01:37:08.057Z,8.20
2024-02-24T01:39:36.997Z,8.20
2024-02-24T01:42:04.633Z,8.20
2024-02-24T01:44:32.123Z,8.30
2024-02-24T01:46:59.530Z,8.20
2024-02-24T01:49:26.996Z,8.30
2024-02-24T01:51:54.624Z,8.30
2024-02-24T01:54:22.246Z,8.30
2024-02-24T01:56:50.124Z,8.20
2024-02-24T01:59:18.356Z,8.10
2024-02-24T02:01:46.059Z,8.10
2024-02-24T02:04:13.487Z,8.10
2024-02-24T02:06:40.973Z,8.10
2024-02-24T02:09:08.396Z,8.10
2024-02-24T02:11:44.375Z,8.10
2024-02-24T02:14:19.686Z,8.10
2024-02-24T02:16:47.135Z,8.20
2024-02-24T02:19:14.725Z,8.20
2024-02-24T02:21:44.727Z,8.20
2024-02-24T02:24:12.682Z,8.30
2024-02-24T02:26:40.636Z,8.30
2024-02-24T02:29:08.141Z,8.30
2024-02-24T02:31:35.592Z,8.30
2024-02-24T02:34:03.097Z,8.30
2024-02-24T02:36:30.599Z,8.30
2024-02-24T02:38:57.969Z,8.30
2024-02-24T02:41:25.791Z,8.30
2024-02-24T02:43:53.202Z,8.30
2024-02-24T02:46:20.583Z,8.30
2024-02-24T02:48:48.176Z,8.20
2024-02-24T02:51:15.829Z,8.20
2024-02-24T02:53:43.300Z,8.10
2024-02-24T02:56:13.982Z,8.00
2024-02-24T02:58:41.394Z,8.00
2024-02-24T03:01:10.179Z,7.90
2024-02-24T03:03:37.632Z,7.90
2024-02-24T03:06:06.267Z,7.80
2024-02-24T03:08:35.155Z,7.80
2024-02-24T03:11:04.070Z,7.70
2024-02-24T03:13:32.227Z,7.70
2024-02-24T03:15:59.692Z,7.70
2024-02-24T03:18:27.135Z,7.70
2024-02-24T03:20:54.929Z,7.70
2024-02-24T03:23:22.399Z,7.80
2024-02-24T03:25:49.982Z,7.80
2024-02-24T03:28:18.069Z,7.80
2024-02-24T03:30:45.589Z,7.80
2024-02-24T03:35:41.122Z,7.80
2024-02-24T03:38:08.623Z,7.90
2024-02-24T03:40:38.653Z,7.90
2024-02-24T03:43:06.620Z,7.90
2024-02-24T03:45:34.432Z,7.90
2024-02-24T03:48:01.996Z,7.90
2024-02-24T03:50:29.460Z,7.90
2024-02-24T03:52:57.349Z,8.00
2024-02-24T03:55:25.025Z,8.00
2024-02-24T03:57:52.649Z,8.00
2024-02-24T04:00:20.288Z,8.00
2024-02-24T04:02:48.195Z,8.10
2024-02-24T04:05:15.657Z,8.10
2024-02-24T04:07:43.100Z,8.10
2024-02-24T04:10:10.722Z,8.20
2024-02-24T04:12:38.395Z,8.20
2024-02-24T04:15:06.170Z,8.20
2024-02-24T04:17:33.736Z,8.10
2024-02-24T04:20:01.290Z,8.00
2024-02-24T04:22:29.097Z,8.00
2024-02-24T04:24:56.955Z,8.00
2024-02-24T04:27:24.338Z,8.10
2024-02-24T04:29:51.774Z,8.10
2024-02-24T04:32:19.472Z,8.20
2024-02-24T04:34:47.135Z,8.30
2024-02-24T04:37:14.845Z,8.30
2024-02-24T04:39:42.222Z,8.40
2024-02-24T04:42:09.855Z,8.40
2024-02-24T04:44:37.279Z,8.40
2024-02-24T04:47:04.882Z,8.50
2024-02-24T04:49:32.367Z,8.60
2024-02-24T04:51:59.989Z,8.60
2024-02-24T04:54:27.721Z,8.70
2024-02-24T04:56:55.183Z,8.70
2024-02-24T04:59:22.596Z,8.60
2024-02-24T05:01:50.277Z,8.60
2024-02-24T05:04:18.057Z,8.60
2024-02-24T05:06:45.846Z,8.50
2024-02-24T05:09:13.860Z,8.50
2024-02-24T05:11:41.741Z,8.50
2024-02-24T05:14:09.404Z,8.50
2024-02-24T05:16:41.436Z,8.50
2024-02-24T05:19:09.124Z,8.60
2024-02-24T05:21:37.758Z,8.60
2024-02-24T05:24:07.037Z,8.60
2024-02-24T05:26:34.502Z,8.60
2024-02-24T05:29:02.095Z,8.50
2024-02-24T05:31:29.649Z,8.30
2024-02-24T05:33:57.908Z,8.20
2024-02-24T05:36:25.460Z,8.20
2024-02-24T05:38:53.007Z,8.20
2024-02-24T05:41:20.469Z,8.30
2024-02-24T05:43:47.942Z,8.30
2024-02-24T05:46:17.781Z,8.40
2024-02-24T05:48:46.743Z,8.50
2024-02-24T05:51:14.545Z,8.50
2024-02-24T05:53:42.222Z,8.40
2024-02-24T05:56:10.130Z,8.40
2024-02-24T05:58:37.621Z,8.40
2024-02-24T06:01:05.132Z,8.30
2024-02-24T06:03:33.040Z,8.30
2024-02-24T06:06:00.578Z,8.30
2024-02-24T06:08:28.857Z,8.40
2024-02-24T06:10:56.541Z,8.50
2024-02-24T06:13:24.327Z,8.60
2024-02-24T06:15:51.726Z,8.60
2024-02-24T06:18:21.254Z,8.70
2024-02-24T06:20:49.382Z,8.70
2024-02-24T06:23:16.970Z,8.80
2024-02-24T06:25:44.506Z,9.00
2024-02-24T06:28:13.023Z,9.10
2024-02-24T06:30:40.502Z,9.30
2024-02-24T06:33:08.708Z,9.40
2024-02-24T06:35:36.714Z,9.40
2024-02-24T06:38:04.573Z,9.50
2024-02-24T06:40:37.662Z,9.70
2024-02-24T06:43:12.523Z,9.80
2024-02-24T06:45:40.154Z,10.00
2024-02-24T06:48:08.056Z,10.20
2024-02-24T06:50:35.931Z,10.40
2024-02-24T06:53:03.489Z,10.60
2024-02-24T06:55:31.293Z,10.60
2024-02-24T06:57:58.703Z,10.70
2024-02-24T07:00:26.449Z,10.70
2024-02-24T07:02:56.097Z,10.70
2024-02-24T07:05:24.483Z,10.70
2024-02-24T07:07:52.022Z,10.80
2024-02-24T07:10:19.483Z,10.90
2024-02-24T07:12:46.857Z,10.80
2024-02-24T07:15:14.414Z,10.80
2024-02-24T07:17:42.482Z,10.80
2024-02-24T07:20:10.724Z,10.90
2024-02-24T07:22:38.506Z,11.00
2024-02-24T07:25:06.255Z,11.10
2024-02-24T07:27:35.623Z,11.10
2024-02-24T07:30:03.213Z,11.10
2024-02-24T07:32:30.855Z,11.00
2024-02-24T07:34:59.852Z,10.90
2024-02-24T07:37:27.293Z,10.80
2024-02-24T07:39:54.726Z,10.90
2024-02-24T07:42:22.215Z,11.00
2024-02-24T07:44:49.693Z,11.00
2024-02-24T07:47:18.700Z,10.90
2024-02-24T07:49:46.764Z,10.90
2024-02-24T07:52:14.243Z,10.90
2024-02-24T07:54:41.668Z,10.90
2024-02-24T07:57:09.161Z,11.00
2024-02-24T07:59:36.712Z,11.00
2024-02-24T08:02:04.310Z,11.20
2024-02-24T08:04:31.701Z,11.30
2024-02-24T08:06:59.123Z,11.30
2024-02-24T08:09:26.619Z,11.30
2024-02-24T08:11:54.226Z,11.30
2024-02-24T08:14:21.822Z,11.40
2024-02-24T08:16:49.235Z,11.50
2024-02-24T08:19:16.854Z,11.70
2024-02-24T08:21:44.329Z,11.90
2024-02-24T08:24:12.095Z,12.00
2024-02-24T08:26:43.324Z,12.00
2024-02-24T08:29:11.452Z,12.10
2024-02-24T08:31:40.195Z,12.10
2024-02-24T08:34:08.280Z,12.20
2024-02-24T08:36:36.660Z,12.30
2024-02-24T08:39:05.275Z,12.50
2024-02-24T08:41:34.618Z,12.60
2024-02-24T08:44:02.805Z,12.90
2024-02-24T08:46:30.743Z,13.10
2024-02-24T08:48:58.882Z,13.30
2024-02-24T08:51:27.499Z,13.50
2024-02-24T08:53:55.846Z,13.60
2024-02-24T08:56:24.428Z,13.70
2024-02-24T08:58:52.311Z,13.80
2024-02-24T09:01:20.024Z,13.80
2024-02-24T09:03:47.898Z,13.90
2024-02-24T09:06:16.799Z,14.00
2024-02-24T09:08:44.747Z,14.10
2024-02-24T09:11:12.899Z,14.20
2024-02-24T09:13:40.417Z,14.30
2024-02-24T09:16:08.127Z,14.50
2024-02-24T09:18:35.608Z,14.60
2024-02-24T09:21:03.396Z,14.60
2024-02-24T09:23:31.183Z,14.80
2024-02-24T09:25:59.032Z,14.90
2024-02-24T09:28:26.539Z,14.80
2024-02-24T09:30:54.044Z,14.70
2024-02-24T09:33:21.701Z,14.70
2024-02-24T09:35:49.374Z,14.60
2024-02-24T09:38:16.803Z,14.60
2024-02-24T09:40:44.685Z,14.70
2024-02-24T09:43:12.177Z,14.70
2024-02-24T09:45:43.524Z,14.70
2024-02-24T09:48:12.325Z,14.70
2024-02-24T09:50:40.621Z,14.70
2024-02-24T09:53:09.263Z,14.60
2024-02-24T09:55:37.772Z,14.60
2024-02-24T09:58:07.856Z,14.60
2024-02-24T10:00:35.863Z,14.60
2024-02-24T10:03:03.673Z,14.70
2024-02-24T10:05:31.875Z,14.80
2024-02-24T10:08:00.480Z,14.90
2024-02-24T10:10:29.668Z,14.80
2024-02-24T10:12:58.795Z,14.80
2024-02-24T10:15:27.081Z,14.80
2024-02-24T10:17:56.428Z,14.80
2024-02-24T10:20:24.370Z,14.80
2024-02-24T10:22:52.137Z,14.90
2024-02-24T10:25:19.594Z,14.90
2024-02-24T10:27:48.061Z,14.80
2024-02-24T10:30:15.671Z,14.70
2024-02-24T10:32:43.933Z,14.80
2024-02-24T10:35:12.428Z,14.80
2024-02-24T10:37:57.012Z,14.80
2024-02-24T10:40:27.554Z,14.80
2024-02-24T10:42:55.878Z,14.90
2024-02-24T10:45:23.824Z,14.90
2024-02-24T10:47:52.775Z,15.00
2024-02-24T10:50:20.896Z,15.10
2024-02-24T10:52:49.907Z,15.00
2024-02-24T10:55:23.982Z,15.00
2024-02-24T10:57:55.980Z,15.00
2024-02-24T11:00:27.178Z,15.10
2024-02-24T11:02:55.367Z,15.10
2024-02-24T11:05:23.079Z,15.10
2024-02-24T11:07:50.808Z,15.10
2024-02-24T11:10:22.350Z,15.10
2024-02-24T11:12:54.040Z,15.10
2024-02-24T11:15:25.094Z,15.10
2024-02-24T11:17:54.979Z,15.30
2024-02-24T11:20:35.023Z,15.50
2024-02-24T11:23:24.528Z,15.70
2024-02-24T11:26:10.612Z,15.90
2024-02-24T11:28:42.250Z,16.10
2024-02-24T11:31:15.141Z,16.20
2024-02-24T11:33:42.804Z,16.20
2024-02-24T11:36:11.979Z,16.40
2024-02-24T11:38:39.384Z,16.50
2024-02-24T11:41:07.536Z,16.50
2024-02-24T11:43:34.996Z,16.50
2024-02-24T11:46:03.667Z,16.50
2024-02-24T11:48:32.210Z,16.50
2024-02-24T11:51:00.331Z,16.60
2024-02-24T11:53:28.942Z,16.80
2024-02-24T11:55:56.722Z,17.00
2024-02-24T11:58:24.457Z,17.20
2024-02-24T12:00:52.280Z,17.20
2024-02-24T12:03:21.623Z,17.20
2024-02-24T12:05:49.771Z,17.30
2024-02-24T12:08:21.324Z,17.20
2024-02-24T12:10:49.162Z,17.20
2024-02-24T12:13:16.622Z,17.10
2024-02-24T12:15:45.428Z,17.00
2024-02-24T12:18:13.763Z,16.90
2024-02-24T12:20:43.162Z,16.90
2024-02-24T12:23:11.861Z,16.80
2024-02-24T12:25:39.535Z,16.80
2024-02-24T12:28:07.475Z,16.80
2024-02-24T12:30:38.868Z,16.70
2024-02-24T12:33:13.743Z,16.60
2024-02-24T12:35:43.585Z,16.40
2024-02-24T12:38:20.322Z,16.30
2024-02-24T12:40:48.034Z,16.10
2024-02-24T12:43:15.599Z,16.10
2024-02-24T12:45:43.676Z,16.00
2024-02-24T12:48:11.354Z,15.90
2024-02-24T12:50:39.371Z,15.90
2024-02-24T12:53:09.057Z,15.90
2024-02-24T12:55:37.573Z,15.80
2024-02-24T12:58:05.239Z,15.90
2024-02-24T13:00:33.020Z,15.80
2024-02-24T13:03:01.046Z,15.80
2024-02-24T13:05:29.192Z,15.90
2024-02-24T13:07:57.124Z,16.00
2024-02-24T13:10:24.975Z,15.90
2024-02-24T13:12:52.881Z,16.00
2024-02-24T13:15:20.298Z,16.00
2024-02-24T13:17:47.942Z,15.90
2024-02-24T13:20:15.527Z,15.90
2024-02-24T13:22:43.406Z,15.90
2024-02-24T13:25:11.166Z,15.90
2024-02-24T13:27:38.809Z,15.90
2024-02-24T13:30:07.098Z,16.00
2024-02-24T13:32:35.754Z,16.00
2024-02-24T13:35:03.715Z,16.00
2024-02-24T13:37:31.508Z,16.00
2024-02-24T13:39:59.028Z,16.00
2024-02-24T13:42:27.634Z,16.00
2024-02-24T13:44:56.230Z,16.00
2024-02-24T13:47:24.013Z,15.90
2024-02-24T13:49:51.639Z,15.80
2024-02-24T13:52:19.068Z,15.70
2024-02-24T13:54:46.591Z,15.70
2024-02-24T13:57:14.207Z,15.80
2024-02-24T13:59:41.879Z,15.80
2024-02-24T14:02:09.282Z,15.80
2024-02-24T14:04:36.816Z,15.70
2024-02-24T14:07:05.957Z,15.70
2024-02-24T14:09:34.346Z,15.70
2024-02-24T14:12:02.102Z,15.60
2024-02-24T14:14:29.603Z,15.60
2024-02-24T14:16:57.259Z,15.50
2024-02-24T14:19:24.924Z,15.50
2024-02-24T14:21:52.881Z,15.40
2024-02-24T14:24:20.965Z,15.30
2024-02-24T14:26:48.709Z,15.20
2024-02-24T14:29:16.348Z,15.10
2024-02-24T14:31:43.728Z,15.10
2024-02-24T14:34:11.587Z,15.10
2024-02-24T14:36:39.206Z,15.00
2024-02-24T14:39:06.996Z,14.90
2024-02-24T14:41:34.742Z,14.90
2024-02-24T14:44:02.351Z,14.90
2024-02-24T14:46:30.077Z,14.90
2024-02-24T14:48:57.831Z,14.90
2024-02-24T14:51:25.486Z,14.80
2024-02-24T14:53:53.513Z,14.80
2024-02-24T14:56:21.766Z,14.80
2024-02-24T14:58:49.309Z,14.70
2024-02-24T15:01:17.176Z,14.70
2024-02-24T15:03:47.408Z,14.60
2024-02-24T15:06:16.198Z,14.60
2024-02-24T15:08:43.806Z,14.50
2024-02-24T15:11:12.077Z,14.50
2024-02-24T15:13:39.826Z,14.50
2024-02-24T15:16:08.412Z,14.40
2024-02-24T15:18:36.301Z,14.30
2024-02-24T15:21:04.340Z,14.20
2024-02-24T15:23:32.027Z,14.10
2024-02-24T15:25:59.541Z,14.00
2024-02-24T15:28:27.307Z,13.90
2024-02-24T15:30:54.909Z,13.70
2024-02-24T15:33:23.532Z,13.60
2024-02-24T15:35:51.280Z,13.50
2024-02-24T15:38:18.747Z,13.50
2024-02-24T15:40:46.171Z,13.40
2024-02-24T15:43:13.673Z,13.40
2024-02-24T15:45:42.302Z,13.40
2024-02-24T15:48:09.970Z,13.40
2024-02-24T15:50:37.523Z,13.30
2024-02-24T15:53:05.004Z,13.30
2024-02-24T15:55:32.467Z,13.20
2024-02-24T15:58:01.138Z,13.20
2024-02-24T16:00:28.635Z,13.10
2024-02-24T16:02:56.218Z,13.10
2024-02-24T16:05:24.075Z,13.00
2024-02-24T16:07:51.660Z,12.90
2024-02-24T16:10:19.205Z,12.80
2024-02-24T16:12:48.642Z,12.70
2024-02-24T16:15:16.141Z,12.70
2024-02-24T16:17:43.689Z,12.60
2024-02-24T16:20:11.686Z,12.50
2024-02-24T16:22:40.807Z,12.40
2024-02-24T16:25:08.407Z,12.30
2024-02-24T16:27:35.916Z,12.20
2024-02-24T16:30:04.143Z,12.20
2024-02-24T16:32:31.675Z,12.10
2024-02-24T16:34:59.275Z,12.10
2024-02-24T16:37:26.836Z,12.10
2024-02-24T16:39:56.983Z,12.00
2024-02-24T16:42:24.536Z,12.00
2024-02-24T16:44:52.122Z,11.90
2024-02-24T16:47:20.030Z,11.80
2024-02-24T16:49:47.645Z,11.80
2024-02-24T16:52:15.193Z,11.70
2024-02-24T16:54:42.632Z,11.60
2024-02-24T16:57:12.768Z,11.60
2024-02-24T16:59:41.643Z,11.50
2024-02-24T17:02:09.286Z,11.50
2024-02-24T17:04:37.596Z,11.50
2024-02-24T17:07:05.223Z,11.40
2024-02-24T17:09:32.996Z,11.40
2024-02-24T17:12:01.337Z,11.40
2024-02-24T17:14:28.922Z,11.40
2024-02-24T17:16:56.385Z,11.30
2024-02-24T17:19:24.619Z,11.30
2024-02-24T17:21:52.170Z,11.20
2024-02-24T17:24:19.555Z,11.20
2024-02-24T17:26:47.469Z,11.10
2024-02-24T17:29:15.091Z,11.00
2024-02-24T17:31:42.560Z,11.00
2024-02-24T17:34:11.620Z,11.00
2024-02-24T17:36:44.245Z,11.00
2024-02-24T17:39:11.655Z,11.00
2024-02-24T17:41:39.172Z,11.00
2024-02-24T17:44:06.679Z,11.00
2024-02-24T17:46:37.026Z,11.00
2024-02-24T17:49:06.521Z,11.00
2024-02-24T17:51:34.063Z,10.90
2024-02-24T17:54:02.557Z,10.80
2024-02-24T17:56:33.568Z,10.70
2024-02-24T17:59:01.115Z,10.70
2024-02-24T18:01:28.613Z,10.60
2024-02-24T18:03:56.418Z,10.60
2024-02-24T18:06:23.930Z,10.50
2024-02-24T18:08:51.428Z,10.40
2024-02-24T18:11:20.598Z,10.40
2024-02-24T18:13:48.029Z,10.40
2024-02-24T18:16:15.459Z,10.40
2024-02-24T18:18:43.023Z,10.40
2024-02-24T18:21:19.765Z,10.40
2024-02-24T18:23:47.385Z,10.40
2024-02-24T18:26:14.857Z,10.40
2024-02-24T18:28:43.894Z,10.40
2024-02-24T18:31:11.340Z,10.40
2024-02-24T18:33:39.008Z,10.40
2024-02-24T18:36:07.620Z,10.40
2024-02-24T18:38:35.243Z,10.50
2024-02-24T18:41:02.718Z,10.40
2024-02-24T18:43:30.108Z,10.40
2024-02-24T18:45:58.547Z,10.40
2024-02-24T18:48:26.129Z,10.50
2024-02-24T18:50:53.758Z,10.50
2024-02-24T18:53:21.207Z,10.60
2024-02-24T18:55:48.658Z,10.60
2024-02-24T18:58:16.086Z,10.60
2024-02-24T19:00:43.675Z,10.60
2024-02-24T19:03:11.114Z,10.70
2024-02-24T19:05:38.718Z,10.60
2024-02-24T19:08:06.849Z,10.60
2024-02-24T19:10:36.045Z,10.50
2024-02-24T19:13:03.702Z,10.50
2024-02-24T19:15:31.316Z,10.50
2024-02-24T19:17:58.927Z,10.50
2024-02-24T19:20:26.481Z,10.50
2024-02-24T19:22:53.935Z,10.50
2024-02-24T19:25:21.732Z,10.50
2024-02-24T19:27:50.646Z,10.40
2024-02-24T19:30:18.233Z,10.40
2024-02-24T19:32:46.952Z,10.40
2024-02-24T19:35:15.156Z,10.40
2024-02-24T19:37:42.872Z,10.40
2024-02-24T19:40:11.021Z,10.40
2024-02-24T19:42:38.498Z,10.40
2024-02-24T19:45:06.318Z,10.40
2024-02-24T19:47:34.046Z,10.40
2024-02-24T19:50:01.658Z,10.50
2024-02-24T19:52:29.228Z,10.50
2024-02-24T19:54:56.626Z,10.50
2024-02-24T19:57:24.099Z,10.40
2024-02-24T19:59:51.526Z,10.40
2024-02-24T20:02:19.054Z,10.40
2024-02-24T20:04:46.508Z,10.40
2024-02-24T20:07:15.000Z,10.40
2024-02-24T20:09:42.646Z,10.30
2024-02-24T20:12:13.439Z,10.30
2024-02-24T20:14:41.262Z,10.30
2024-02-24T20:17:08.707Z,10.20
2024-02-24T20:19:36.110Z,10.20
2024-02-24T20:22:04.561Z,10.10
2024-02-24T20:24:31.955Z,10.00
2024-02-24T20:26:59.349Z,10.00
2024-02-24T20:29:26.748Z,9.90
2024-02-24T20:31:54.139Z,9.80
2024-02-24T20:34:21.935Z,9.80
2024-02-24T20:36:49.351Z,9.70
2024-02-24T20:39:16.687Z,9.70
2024-02-24T20:41:44.098Z,9.60
2024-02-24T20:44:11.522Z,9.60
2024-02-24T20:46:46.096Z,9.60
2024-02-24T20:49:15.533Z,9.70
2024-02-24T20:51:43.048Z,9.70
2024-02-24T20:54:10.436Z,9.70
2024-02-24T20:56:37.805Z,9.70
2024-02-24T20:59:05.157Z,9.70
2024-02-24T21:01:33.231Z,9.80
2024-02-24T21:04:00.666Z,9.70
2024-02-24T21:06:28.179Z,9.60
2024-02-24T21:08:55.663Z,9.60
2024-02-24T21:11:23.210Z,9.50
2024-02-24T21:13:50.991Z,9.40
2024-02-24T21:16:18.517Z,9.30
2024-02-24T21:18:45.991Z,9.30
2024-02-24T21:21:13.353Z,9.30
2024-02-24T21:23:40.777Z,9.20
2024-02-24T21:26:08.626Z,9.20
2024-02-24T21:28:36.000Z,9.20
2024-02-24T21:31:03.346Z,9.20
2024-02-24T21:33:30.812Z,9.20
2024-02-24T21:35:58.223Z,9.20
2024-02-24T21:38:26.216Z,9.10
2024-02-24T21:40:54.177Z,9.10
2024-02-24T21:43:21.581Z,9.10
2024-02-24T21:45:49.038Z,9.10
2024-02-24T21:48:17.592Z,9.10
2024-02-24T21:50:45.185Z,9.10
2024-02-24T21:53:12.572Z,9.10
2024-02-24T21:55:39.992Z,9.20
2024-02-24T21:58:07.318Z,9.20
2024-02-24T22:00:34.678Z,9.20
2024-02-24T22:03:05.820Z,9.20
2024-02-24T22:05:33.732Z,9.30
2024-02-24T22:08:01.258Z,9.40
2024-02-24T22:10:29.286Z,9.40
2024-02-24T22:12:57.473Z,9.50
2024-02-24T22:15:24.972Z,9.50
2024-02-24T22:17:52.654Z,9.60
2024-02-24T22:20:20.236Z,9.60
2024-02-24T22:22:47.811Z,9.60
2024-02-24T22:25:16.057Z,9.60
2024-02-24T22:27:43.719Z,9.50
2024-02-24T22:30:16.419Z,9.60
2024-02-24T22:32:45.378Z,9.60
2024-02-24T22:35:13.029Z,9.50
2024-02-24T22:37:40.677Z,9.50
2024-02-24T22:40:09.206Z,9.50
2024-02-24T22:42:36.689Z,9.50
2024-02-24T22:45:05.882Z,9.50
2024-02-24T22:47:33.430Z,9.60
2024-02-24T22:50:01.056Z,9.50
2024-02-24T22:52:28.525Z,9.60
2024-02-24T22:54:55.957Z,9.60
2024-02-24T22:57:23.423Z,9.60
2024-02-24T22:59:50.945Z,9.60
2024-02-24T23:02:18.392Z,9.60
2024-02-24T23:04:45.802Z,9.60
2024-02-24T23:07:13.373Z,9.60
2024-02-24T23:09:40.894Z,9.60
2024-02-24T23:12:08.432Z,9.60
2024-02-24T23:14:35.932Z,9.60
2024-02-24T23:17:03.531Z,9.60
2024-02-24T23:19:31.121Z,9.60
2024-02-24T23:21:58.581Z,9.50
2024-02-24T23:24:26.048Z,9.40
2024-02-24T23:26:53.470Z,9.40
2024-02-24T23:29:21.094Z,9.30
2024-02-24T23:31:50.578Z,9.20
2024-02-24T23:34:18.299Z,9.20
2024-02-24T23:36:45.832Z,9.20
2024-02-24T23:39:13.283Z,9.30
2024-02-24T23:41:40.849Z,9.30
2024-02-24T23:44:08.441Z,9.30
2024-02-24T23:46:36.274Z,9.40
2024-02-24T23:49:05.321Z,9.40
2024-02-24T23:51:34.926Z,9.40
2024-02-24T23:54:02.955Z,9.40
2024-02-24T23:56:30.496Z,9.40
2024-02-24T23:58:57.967Z,9.40
